Rome, PA

1:05 PM EDT on August 30, 2016 (GMT -0400)
Pike Township | | Change Station

Elev 1401 ft 41.86 °N, 76.21 °W | Updated 17 seconds ago

Clear
Clear
73.8 °F
Feels Like 77 °F
N
3.0
Wind Variable Wind from NE
Gusts 5.0 mph

Today
High -- | Low -- °F
--% Chance of Precip.
Yesterday
High -- | Low -- °F
Precip. -- in
Pressure 30.17 in
Visibility 10.0 miles
Clouds Clear
Heat Index 77 °F
Dew Point 59 °F
Humidity 60%
Rainfall 0.00 in
Snow Depth Not available.
6:29 AM 7:41 PM
Waning Crescent, 3% visible
METAR KBGM 301653Z 19005KT 10SM CLR 22/13 A3019 RMK AO2 SLP215 T02170128
Pressure 30.17 in
Visibility 10.0 miles
Clouds Clear
Heat Index 77 °F
Dew Point 59 °F
Humidity 60%
Rainfall 0.00 in
Snow Depth Not available.
6:29 AM 7:41 PM
Waning Crescent, 3% visible
METAR KBGM 301653Z 19005KT 10SM CLR 22/13 A3019 RMK AO2 SLP215 T02170128

10-Day Weather Forecast

Almanac

Astronomy

Aug. 30, 2016 Rise Set
Actual Time
Civil Twilight
Nautical Twilight
Astronomical Twilight
Moon
Length of Visible Light
Length of Day
Tomorrow will be .
, % of the Moon is Illuminated

Today's Extremes

State Highs State Lows

Community

WunderPhotos

Upload Photos

1,935,845 photos uploaded!

WunderBlog® & News

Nearby

Air Quality

  Air Quality AQ Index Pollutant
Not available.

Snow Depth

Station Depth Elevation

Earthquake Activity

City Distance Mag. Time & Date
Minimum magnitude displayed is 2.5.

Coastal Water Temperatures

Place Temperature

Stations

Nearby Weather Stations

Station Location Temp. Windchill Dew Point Humidity Wind Precip. Elev Updated Type
                   

Watches & Warnings

There are currently no watches in effect.